createdAt,value
2022-12-05T00:01:23.012Z,26.00
2022-12-05T00:03:52.127Z,32.00
2022-12-05T00:06:20.064Z,25.75
2022-12-05T00:08:47.492Z,29.60
2022-12-05T00:11:19.965Z,27.63
2022-12-05T00:13:48.000Z,32.78
2022-12-05T00:16:18.410Z,25.83
2022-12-05T00:18:45.859Z,27.00
2022-12-05T00:21:16.749Z,29.00
2022-12-05T00:23:43.696Z,31.02
2022-12-05T00:26:10.902Z,30.73
2022-12-05T00:28:38.703Z,30.40
2022-12-05T00:31:08.777Z,32.40
2022-12-05T00:33:35.879Z,29.88
2022-12-05T00:36:12.199Z,24.42
2022-12-05T00:38:39.176Z,30.05
2022-12-05T00:41:09.035Z,18.23
2022-12-05T00:43:36.843Z,26.80
2022-12-05T00:46:08.777Z,21.60
2022-12-05T00:48:36.331Z,40.47
2022-12-05T00:51:13.227Z,23.05
2022-12-05T00:53:40.770Z,31.80
2022-12-05T00:56:13.159Z,27.40
2022-12-05T00:58:40.762Z,30.60
2022-12-05T01:01:12.606Z,32.00
2022-12-05T01:03:40.354Z,23.77
2022-12-05T01:06:07.916Z,35.05
2022-12-05T01:08:35.779Z,31.92
2022-12-05T01:11:04.729Z,38.25
2022-12-05T01:13:32.395Z,32.42
2022-12-05T01:15:59.700Z,34.90
2022-12-05T01:18:28.147Z,31.20
2022-12-05T01:20:55.435Z,23.80
2022-12-05T01:23:22.719Z,21.48
2022-12-05T01:25:51.735Z,30.52
2022-12-05T01:28:19.062Z,31.20
2022-12-05T01:30:48.187Z,23.45
2022-12-05T01:33:15.624Z,26.30
2022-12-05T01:35:42.879Z,26.73
2022-12-05T01:38:12.517Z,25.17
2022-12-05T01:40:40.380Z,28.70
2022-12-05T01:43:15.836Z,23.90
2022-12-05T01:45:45.897Z,21.90
2022-12-05T01:48:20.888Z,26.50
2022-12-05T01:50:50.099Z,21.63
2022-12-05T01:53:17.880Z,25.20
2022-12-05T01:55:46.258Z,27.90
2022-12-05T01:58:13.480Z,26.52
2022-12-05T02:00:40.466Z,27.15
2022-12-05T02:03:10.845Z,19.33
2022-12-05T02:05:41.295Z,22.88
2022-12-05T02:08:10.307Z,25.15
2022-12-05T02:10:50.178Z,23.52
2022-12-05T02:13:27.031Z,28.50
2022-12-05T02:16:15.414Z,29.15
2022-12-05T02:18:57.543Z,18.42
2022-12-05T02:21:41.551Z,29.33
2022-12-05T02:24:29.415Z,26.85
2022-12-05T02:27:00.788Z,24.00
2022-12-05T02:29:41.320Z,25.40
2022-12-05T02:32:26.697Z,24.90
2022-12-05T02:34:59.678Z,26.65
2022-12-05T02:37:59.787Z,32.60
2022-12-05T02:40:46.657Z,26.60
2022-12-05T02:43:25.839Z,26.00
2022-12-05T02:45:58.614Z,22.63
2022-12-05T02:48:29.083Z,24.25
2022-12-05T02:51:00.375Z,24.38
2022-12-05T02:53:29.003Z,29.02
2022-12-05T02:55:56.979Z,20.77
2022-12-05T02:58:38.725Z,26.95
2022-12-05T03:01:05.998Z,24.88
2022-12-05T03:03:33.933Z,18.25
2022-12-05T03:06:07.059Z,22.95
2022-12-05T03:08:41.237Z,22.05
2022-12-05T03:11:08.405Z,18.23
2022-12-05T03:13:45.915Z,24.23
2022-12-05T03:16:22.147Z,22.50
2022-12-05T03:19:21.777Z,26.83
2022-12-05T03:22:16.575Z,18.25
2022-12-05T03:24:43.784Z,21.90
2022-12-05T03:27:27.852Z,19.35
2022-12-05T03:30:02.141Z,17.20
2022-12-05T03:33:02.278Z,19.75
2022-12-05T03:35:44.999Z,11.93
2022-12-05T03:38:24.679Z,18.10
2022-12-05T03:41:21.097Z,21.58
2022-12-05T03:43:58.071Z,18.50
2022-12-05T03:46:32.439Z,21.00
2022-12-05T03:49:07.609Z,14.82
2022-12-05T03:51:47.481Z,20.63
2022-12-05T03:54:37.724Z,17.55
2022-12-05T03:57:15.335Z,17.65
2022-12-05T03:59:55.268Z,17.35
2022-12-05T04:02:34.729Z,17.27
2022-12-05T04:05:08.570Z,15.23
2022-12-05T04:07:39.175Z,13.77
2022-12-05T04:10:12.707Z,18.63
2022-12-05T04:12:41.827Z,13.73
2022-12-05T04:15:14.549Z,19.90
2022-12-05T04:17:56.931Z,18.30
2022-12-05T04:20:45.959Z,15.55
2022-12-05T04:23:13.117Z,14.50
2022-12-05T04:26:06.893Z,17.45
2022-12-05T04:29:10.423Z,19.77
2022-12-05T04:31:44.147Z,17.83
2022-12-05T04:34:15.099Z,17.20
2022-12-05T04:37:00.640Z,15.95
2022-12-05T04:39:36.994Z,14.35
2022-12-05T04:42:10.785Z,22.17
2022-12-05T04:44:44.301Z,17.13
2022-12-05T04:47:15.531Z,17.40
2022-12-05T04:49:48.049Z,25.73
2022-12-05T04:52:19.449Z,15.13
2022-12-05T04:54:49.118Z,17.02
2022-12-05T04:57:19.184Z,20.92
2022-12-05T04:59:46.871Z,22.10
2022-12-05T05:02:18.850Z,15.38
2022-12-05T05:04:52.646Z,17.00
2022-12-05T05:07:20.551Z,17.65
2022-12-05T05:09:47.487Z,17.00
2022-12-05T05:12:18.902Z,19.58
2022-12-05T05:14:46.387Z,16.73
2022-12-05T05:17:13.311Z,17.23
2022-12-05T05:19:40.261Z,16.92
2022-12-05T05:22:07.185Z,18.27
2022-12-05T05:24:34.068Z,19.48
2022-12-05T05:27:00.999Z,18.38
2022-12-05T05:29:27.922Z,21.50
2022-12-05T05:31:54.924Z,18.95
2022-12-05T05:34:21.810Z,14.57
2022-12-05T05:36:52.982Z,16.30
2022-12-05T05:39:20.227Z,13.85
2022-12-05T05:44:26.128Z,13.02
2022-12-05T05:46:53.250Z,17.90
2022-12-05T05:49:20.222Z,18.20
2022-12-05T05:51:47.138Z,14.15
2022-12-05T05:54:14.048Z,19.25
2022-12-05T05:56:40.969Z,19.90
2022-12-05T05:59:07.871Z,16.17
2022-12-05T06:01:34.760Z,18.33
2022-12-05T06:04:01.840Z,20.20
2022-12-05T06:06:28.877Z,18.00
2022-12-05T06:08:56.072Z,19.23
2022-12-05T06:11:26.749Z,17.13
2022-12-05T06:13:58.689Z,17.95
2022-12-05T06:16:25.735Z,13.98
2022-12-05T06:18:53.543Z,18.35
2022-12-05T06:21:21.993Z,20.27
2022-12-05T06:23:50.258Z,16.15
2022-12-05T06:26:20.127Z,23.15
2022-12-05T06:28:47.442Z,18.57
2022-12-05T06:31:20.007Z,16.98
2022-12-05T06:33:47.708Z,14.85
2022-12-05T06:36:17.716Z,18.17
2022-12-05T06:38:44.976Z,15.48
2022-12-05T06:41:15.233Z,15.65
2022-12-05T06:43:42.788Z,18.80
2022-12-05T06:46:11.961Z,17.25
2022-12-05T06:48:39.773Z,17.75
2022-12-05T06:51:10.642Z,15.70
2022-12-05T06:53:37.897Z,16.35
2022-12-05T06:56:08.220Z,19.90
2022-12-05T06:58:35.194Z,21.20
2022-12-05T07:01:20.503Z,15.80
2022-12-05T07:03:49.561Z,19.77
2022-12-05T07:06:17.360Z,16.08
2022-12-05T07:08:45.022Z,15.98
2022-12-05T07:11:12.299Z,15.38
2022-12-05T07:13:39.421Z,20.98
2022-12-05T07:16:07.459Z,24.50
2022-12-05T07:18:35.565Z,18.95
2022-12-05T07:21:12.506Z,17.65
2022-12-05T07:23:41.775Z,19.75
2022-12-05T07:26:10.522Z,18.30
2022-12-05T07:28:37.426Z,15.93
2022-12-05T07:31:06.812Z,21.00
2022-12-05T07:33:34.041Z,18.50
2022-12-05T07:36:08.267Z,17.70
2022-12-05T07:38:35.347Z,21.85
2022-12-05T07:41:13.522Z,18.92
2022-12-05T07:43:41.792Z,19.52
2022-12-05T07:46:11.544Z,19.10
2022-12-05T07:48:39.530Z,16.50
2022-12-05T07:51:07.931Z,18.08
2022-12-05T07:53:35.242Z,18.50
2022-12-05T07:56:04.885Z,17.83
2022-12-05T07:58:33.293Z,21.15
2022-12-05T08:01:17.981Z,17.42
2022-12-05T08:03:45.504Z,24.27
2022-12-05T10:07:58.980Z,18.15
2022-12-05T10:10:57.499Z,11.98
2022-12-05T10:13:53.755Z,24.20
2022-12-05T10:16:49.143Z,18.92
2022-12-05T10:19:42.136Z,20.55
2022-12-05T10:25:06.876Z,19.95
2022-12-05T10:27:40.252Z,20.80
2022-12-05T10:30:18.900Z,18.45
2022-12-05T10:32:59.448Z,22.58
2022-12-05T10:35:33.089Z,20.30
2022-12-05T10:38:28.529Z,19.63
2022-12-05T10:41:00.771Z,23.77
2022-12-05T10:43:30.245Z,24.55
2022-12-05T10:45:58.059Z,18.20
2022-12-05T10:48:25.723Z,24.75
2022-12-05T10:50:57.864Z,27.27
2022-12-05T10:53:41.934Z,18.42
2022-12-05T10:56:36.910Z,25.90
2022-12-05T10:59:04.411Z,24.83
2022-12-05T11:01:31.935Z,26.55
2022-12-05T11:04:01.623Z,29.05
2022-12-05T11:06:32.524Z,25.17
2022-12-05T11:09:09.908Z,22.67
2022-12-05T11:11:37.138Z,24.95
2022-12-05T11:14:21.566Z,22.00
2022-12-05T11:16:57.639Z,19.92
2022-12-05T11:19:27.597Z,14.05
2022-12-05T11:21:55.202Z,17.25
2022-12-05T11:24:29.558Z,21.42
2022-12-05T11:27:21.771Z,21.63
2022-12-05T11:30:24.133Z,22.60
2022-12-05T11:32:51.658Z,11.15
2022-12-05T11:35:26.309Z,13.43
2022-12-05T11:37:53.270Z,14.98
2022-12-05T11:40:43.019Z,17.95
2022-12-05T11:43:28.462Z,18.50
2022-12-05T11:46:04.367Z,27.08
2022-12-05T11:48:49.759Z,20.40
2022-12-05T11:51:31.395Z,17.55
2022-12-05T11:54:13.713Z,16.45
2022-12-05T11:57:13.906Z,22.92
2022-12-05T12:00:14.146Z,19.08
2022-12-05T12:03:04.165Z,11.27
2022-12-05T12:05:44.930Z,22.88
2022-12-05T12:11:16.695Z,9.43
2022-12-05T12:13:58.753Z,13.43
2022-12-05T12:16:41.060Z,19.20
2022-12-05T12:19:38.448Z,18.55
2022-12-05T12:22:34.546Z,18.10
2022-12-05T12:25:33.815Z,19.67
2022-12-05T12:28:05.585Z,19.13
2022-12-05T12:31:00.810Z,21.27
2022-12-05T12:33:52.335Z,19.80
2022-12-05T12:36:25.417Z,22.23
2022-12-05T12:39:22.656Z,19.98
2022-12-05T12:42:21.881Z,16.80
2022-12-05T12:45:09.255Z,21.70
2022-12-05T12:47:40.230Z,16.48
2022-12-05T12:50:22.199Z,14.63
2022-12-05T12:52:55.066Z,17.60
2022-12-05T12:55:35.195Z,21.55
2022-12-05T12:58:28.183Z,13.05
2022-12-05T13:01:21.661Z,14.00
2022-12-05T13:04:02.896Z,19.25
2022-12-05T13:06:43.115Z,18.85
2022-12-05T13:09:22.552Z,15.77
2022-12-05T13:11:52.290Z,17.80
2022-12-05T13:14:24.438Z,17.63
2022-12-05T13:16:54.557Z,20.15
2022-12-05T13:19:38.052Z,20.50
2022-12-05T13:22:07.300Z,22.92
2022-12-05T13:24:34.894Z,19.33
2022-12-05T13:27:06.637Z,18.25
2022-12-05T13:29:37.915Z,22.05
2022-12-05T13:32:06.096Z,25.08
2022-12-05T13:34:36.165Z,18.92
2022-12-05T13:37:31.276Z,23.40
2022-12-05T13:40:22.845Z,21.83
2022-12-05T13:43:00.858Z,16.40
2022-12-05T13:45:28.509Z,17.35
2022-12-05T13:48:01.768Z,14.73
2022-12-05T13:50:41.442Z,15.63
2022-12-05T13:53:26.161Z,17.65
2022-12-05T13:56:16.062Z,22.98
2022-12-05T13:58:59.222Z,20.47
2022-12-05T14:01:26.350Z,17.90
2022-12-05T14:03:59.996Z,17.40
2022-12-05T14:06:38.856Z,16.92
2022-12-05T14:09:17.747Z,15.15
2022-12-05T14:12:22.976Z,27.10
2022-12-05T14:15:03.871Z,17.42
2022-12-05T14:17:43.247Z,22.70
2022-12-05T14:20:22.497Z,15.82
2022-12-05T14:23:22.514Z,16.65
2022-12-05T14:26:15.110Z,10.30
2022-12-05T14:28:54.029Z,15.20
2022-12-05T14:31:49.499Z,13.88
2022-12-05T14:34:31.797Z,15.48
2022-12-05T14:37:06.818Z,13.88
2022-12-05T14:39:50.389Z,11.60
2022-12-05T14:42:29.513Z,10.48
2022-12-05T14:44:59.830Z,16.00
2022-12-05T14:47:33.053Z,13.05
2022-12-05T14:50:33.622Z,13.68
2022-12-05T14:53:15.824Z,14.98
2022-12-05T14:55:49.003Z,12.73
2022-12-05T14:58:40.515Z,20.55
2022-12-05T15:01:30.205Z,18.13
2022-12-05T15:04:17.548Z,16.90
2022-12-05T15:06:56.465Z,16.05
2022-12-05T15:10:02.650Z,18.63
2022-12-05T15:12:48.872Z,10.05
2022-12-05T15:15:24.152Z,20.25
2022-12-05T15:17:57.697Z,15.98
2022-12-05T15:20:40.509Z,13.55
2022-12-05T15:23:38.048Z,19.17
2022-12-05T15:29:33.128Z,13.52
2022-12-05T15:32:03.231Z,9.60
2022-12-05T15:34:58.448Z,16.42
2022-12-05T15:37:34.839Z,16.85
2022-12-05T15:40:11.076Z,15.13
2022-12-05T15:42:52.469Z,10.80
2022-12-05T15:45:28.137Z,14.15
2022-12-05T15:47:59.583Z,15.15
2022-12-05T15:50:49.493Z,12.93
2022-12-05T15:53:38.750Z,14.50
2022-12-05T15:56:22.520Z,15.55
2022-12-05T15:58:55.344Z,10.35
2022-12-05T16:01:24.471Z,13.13
2022-12-05T16:03:57.322Z,14.80
2022-12-05T16:06:28.562Z,8.55
2022-12-05T16:08:57.156Z,10.73
2022-12-05T16:11:24.450Z,16.00
2022-12-05T16:13:57.065Z,17.85
2022-12-05T16:16:28.447Z,10.18
2022-12-05T16:18:58.702Z,12.20
2022-12-05T16:21:39.460Z,12.27
2022-12-05T16:26:38.727Z,9.68
2022-12-05T16:29:05.798Z,13.35
2022-12-05T16:31:36.137Z,12.82
2022-12-05T16:34:08.503Z,16.92
2022-12-05T16:36:36.640Z,14.00
2022-12-05T16:39:19.025Z,13.15
2022-12-05T16:41:47.054Z,14.98
2022-12-05T16:44:45.629Z,11.55
2022-12-05T16:47:24.199Z,17.88
2022-12-05T16:49:51.586Z,18.60
2022-12-05T16:52:18.817Z,12.50
2022-12-05T16:54:48.316Z,10.20
2022-12-05T16:57:16.703Z,10.93
2022-12-05T16:59:45.623Z,16.13
2022-12-05T17:04:49.988Z,10.10
2022-12-05T17:07:16.985Z,9.48
2022-12-05T17:09:43.923Z,12.00
2022-12-05T17:12:19.417Z,12.20
2022-12-05T17:14:47.265Z,9.63
2022-12-05T17:17:16.049Z,8.90
2022-12-05T17:19:43.265Z,12.38
2022-12-05T17:22:12.515Z,11.98
2022-12-05T17:24:39.400Z,13.40
2022-12-05T17:27:10.846Z,12.38
2022-12-05T17:29:38.227Z,15.52
2022-12-05T17:32:05.479Z,14.30
2022-12-05T17:34:32.420Z,16.42
2022-12-05T17:37:00.335Z,11.85
2022-12-05T17:39:28.758Z,12.32
2022-12-05T17:41:57.336Z,10.65
2022-12-05T17:44:24.544Z,18.20
2022-12-05T17:46:51.653Z,11.95
2022-12-05T17:49:18.866Z,15.55
2022-12-05T17:52:20.144Z,11.82
2022-12-05T17:54:33.409Z,12.32
2022-12-05T17:57:00.338Z,17.75
2022-12-05T17:59:27.312Z,21.55
2022-12-05T18:01:54.262Z,25.40
2022-12-05T18:04:23.458Z,17.77
2022-12-05T18:06:51.249Z,10.77
2022-12-05T18:09:18.433Z,14.70
2022-12-05T18:11:45.409Z,9.52
2022-12-05T18:14:12.456Z,16.83
2022-12-05T18:16:39.448Z,16.50
2022-12-05T18:19:08.284Z,13.90
2022-12-05T18:21:35.724Z,13.73
2022-12-05T18:24:02.647Z,17.52
2022-12-05T18:26:29.604Z,8.70
2022-12-05T18:28:57.501Z,10.70
2022-12-05T18:31:24.715Z,10.98
2022-12-05T18:33:51.774Z,13.38
2022-12-05T18:36:21.198Z,7.40
2022-12-05T18:38:53.283Z,10.73
2022-12-05T18:41:23.353Z,10.77
2022-12-05T18:43:50.799Z,12.80
2022-12-05T18:46:18.264Z,13.23
2022-12-05T18:48:47.809Z,12.15
2022-12-05T18:51:22.598Z,15.48
2022-12-05T18:53:54.351Z,10.20
2022-12-05T18:56:25.130Z,10.00
2022-12-05T18:58:57.700Z,11.23
2022-12-05T19:01:25.848Z,13.35
2022-12-05T19:03:53.027Z,18.30
2022-12-05T19:06:22.400Z,6.18
2022-12-05T19:08:49.763Z,12.93
2022-12-05T19:11:19.129Z,12.15
2022-12-05T19:13:47.598Z,15.43
2022-12-05T19:16:18.673Z,22.95
2022-12-05T20:26:14.451Z,16.27
2022-12-05T20:28:41.877Z,7.55
2022-12-05T20:31:12.914Z,5.78
2022-12-05T20:33:40.633Z,8.00
2022-12-05T20:36:19.460Z,8.13
2022-12-05T20:38:47.230Z,8.73
2022-12-05T20:41:17.399Z,11.32
2022-12-05T20:43:45.812Z,9.63
2022-12-05T20:46:15.739Z,16.17
2022-12-05T20:48:43.783Z,8.82
2022-12-05T20:51:16.232Z,10.52
2022-12-05T20:53:44.645Z,12.43
2022-12-05T20:56:17.538Z,21.60
2022-12-05T20:58:47.296Z,11.25
2022-12-05T21:01:15.727Z,10.23
2022-12-05T21:03:45.509Z,12.10
2022-12-05T21:06:18.655Z,11.10
2022-12-05T21:08:46.051Z,11.13
2022-12-05T21:11:13.943Z,13.52
2022-12-05T21:13:41.694Z,10.77
2022-12-05T21:16:11.951Z,12.27
2022-12-05T21:18:39.706Z,12.55
2022-12-05T21:21:09.517Z,11.15
2022-12-05T21:23:39.777Z,10.70
2022-12-05T21:26:10.059Z,13.50
2022-12-05T21:28:37.270Z,11.30
2022-12-05T21:31:25.894Z,11.50
2022-12-05T21:33:55.928Z,12.30
2022-12-05T21:36:24.580Z,7.75
2022-12-05T21:38:55.906Z,11.50
2022-12-05T21:41:24.680Z,10.18
2022-12-05T21:43:55.004Z,11.95
2022-12-05T21:46:23.340Z,12.50
2022-12-05T21:48:50.591Z,12.07
2022-12-05T21:51:18.118Z,10.90
2022-12-05T21:53:45.064Z,9.10
2022-12-05T21:56:17.584Z,10.77
2022-12-05T21:58:46.674Z,12.45
2022-12-05T22:01:27.276Z,16.60
2022-12-05T22:03:59.222Z,10.43
2022-12-05T22:06:26.362Z,6.65
2022-12-05T22:08:54.848Z,11.45
2022-12-05T22:11:23.581Z,11.73
2022-12-05T22:13:50.905Z,12.25
2022-12-05T22:16:18.731Z,8.23
2022-12-05T22:18:46.529Z,13.45
2022-12-05T22:21:15.466Z,14.13
2022-12-05T22:23:42.484Z,10.65
2022-12-05T22:26:14.945Z,12.93
2022-12-05T22:28:42.026Z,10.00
2022-12-05T22:31:12.204Z,12.63
2022-12-05T22:33:39.770Z,14.60
2022-12-05T22:36:09.869Z,12.32
2022-12-05T22:38:39.298Z,12.63
2022-12-05T22:41:09.739Z,10.35
2022-12-05T22:43:38.031Z,7.88
2022-12-05T22:46:13.691Z,11.90
2022-12-05T22:48:41.182Z,12.93
2022-12-05T22:51:09.129Z,12.30
2022-12-05T22:53:37.027Z,11.75
2022-12-05T22:56:10.205Z,9.63
2022-12-05T22:58:38.080Z,7.57
2022-12-05T23:01:18.437Z,11.40
2022-12-05T23:03:46.757Z,14.13
2022-12-05T23:06:15.818Z,8.95
2022-12-05T23:08:45.186Z,8.82
2022-12-05T23:11:12.253Z,10.02
2022-12-05T23:13:39.819Z,14.23
2022-12-05T23:16:12.260Z,10.90
2022-12-05T23:18:48.315Z,13.50
2022-12-05T23:21:27.345Z,11.90
2022-12-05T23:23:55.944Z,11.98
2022-12-05T23:26:25.515Z,13.40
2022-12-05T23:28:53.309Z,15.07
2022-12-05T23:31:20.782Z,17.10
2022-12-05T23:33:51.270Z,12.00
2022-12-05T23:38:45.885Z,10.63
2022-12-05T23:41:14.583Z,11.38
2022-12-05T23:43:42.944Z,8.15
2022-12-05T23:46:11.373Z,12.27
2022-12-05T23:51:20.264Z,10.88
2022-12-05T23:56:33.673Z,6.13
2022-12-05T23:59:02.318Z,8.70
